Time;durP1;ratioP1;P1;durP2;ratioP2;P2;SDS_P1;SDS_P2;PMS_P1;PMS_P2;Temp;Humidity;BMP_temperature;BMP_pressure;BME280_temperature;BME280_humidity;BME280_pressure;Samples;Min_cycle;Max_cycle;Signal;HPM_P1;HPM_P2
2024/01/31 00:02:00;;;;;;;17.45;11.65;;;;;11.70;100121.00;;;;5053611;28;20118;-68
2024/01/31 00:04:27;;;;;;;18.48;11.00;;;;;11.70;100126.00;;;;5052961;28;20052;-69
2024/01/31 00:06:54;;;;;;;15.90;10.27;;;;;11.70;100129.00;;;;5053544;28;20456;-69
2024/01/31 00:09:21;;;;;;;14.93;10.55;;;;;11.80;100125.00;;;;5053409;28;20170;-69
2024/01/31 00:11:48;;;;;;;18.00;11.20;;;;;11.70;100117.00;;;;5054508;28;20040;-69
2024/01/31 00:14:16;;;;;;;18.23;11.57;;;;;11.70;100128.00;;;;5053958;28;20421;-69
2024/01/31 00:16:44;;;;;;;16.35;10.75;;;;;11.70;100130.00;;;;5054413;28;20041;-69
2024/01/31 00:19:11;;;;;;;15.77;10.45;;;;;11.70;100125.00;;;;5054457;28;20052;-69
2024/01/31 00:21:38;;;;;;;16.35;10.85;;;;;11.70;100132.00;;;;5053151;28;20506;-69
2024/01/31 00:24:05;;;;;;;15.38;10.50;;;;;11.60;100135.00;;;;5052410;28;20049;-68
2024/01/31 00:26:32;;;;;;;15.98;10.65;;;;;11.70;100130.00;;;;5054045;28;20041;-69
2024/01/31 00:28:58;;;;;;;16.15;10.98;;;;;11.70;100127.00;;;;5054319;28;20548;-69
2024/01/31 00:31:25;;;;;;;13.95;9.85;;;;;11.70;100120.00;;;;5054186;28;20053;-70
2024/01/31 00:33:52;;;;;;;13.40;10.18;;;;;11.70;100116.00;;;;5053721;28;20051;-69
2024/01/31 00:36:18;;;;;;;16.55;10.60;;;;;11.70;100123.00;;;;5053603;28;20072;-69
2024/01/31 00:38:45;;;;;;;14.60;10.35;;;;;11.70;100128.00;;;;5054157;28;20102;-70
2024/01/31 00:41:11;;;;;;;13.55;10.18;;;;;11.70;100121.00;;;;5052771;28;20057;-69
2024/01/31 00:43:38;;;;;;;17.45;11.20;;;;;11.70;100117.00;;;;5052261;28;20481;-70
2024/01/31 00:46:05;;;;;;;16.80;11.07;;;;;11.60;100116.00;;;;5053920;28;20433;-70
2024/01/31 00:48:32;;;;;;;19.75;10.80;;;;;11.60;100118.00;;;;5053910;28;20044;-71
2024/01/31 00:50:59;;;;;;;21.55;10.65;;;;;11.60;100113.00;;;;5052718;28;20132;-69
2024/01/31 00:53:26;;;;;;;15.30;10.73;;;;;11.60;100112.00;;;;5053293;28;20040;-70
2024/01/31 00:55:52;;;;;;;15.27;10.98;;;;;11.70;100107.00;;;;5053710;28;20033;-70
2024/01/31 00:58:19;;;;;;;16.35;10.98;;;;;11.70;100116.00;;;;5053749;28;20140;-70
2024/01/31 01:00:46;;;;;;;17.13;11.23;;;;;11.60;100119.00;;;;5052511;28;20052;-69
2024/01/31 01:03:12;;;;;;;18.70;11.55;;;;;11.60;100120.00;;;;5053710;28;20048;-70
2024/01/31 01:05:39;;;;;;;15.23;10.80;;;;;11.60;100119.00;;;;5051604;28;20048;-70
2024/01/31 01:08:06;;;;;;;15.90;11.02;;;;;11.60;100109.00;;;;5053623;28;20047;-68
2024/01/31 01:10:32;;;;;;;20.52;12.15;;;;;11.60;100120.00;;;;5053293;28;20041;-68
2024/01/31 01:12:59;;;;;;;16.80;11.13;;;;;11.60;100118.00;;;;5053322;28;20041;-69
2024/01/31 01:15:26;;;;;;;17.42;12.15;;;;;11.50;100125.00;;;;5053435;28;20052;-69
2024/01/31 01:17:57;;;;;;;18.67;11.38;;;;;11.50;100116.00;;;;5053767;28;20124;-69
2024/01/31 01:20:24;;;;;;;21.65;12.68;;;;;11.50;100132.00;;;;5053666;28;20487;-67
2024/01/31 01:22:51;;;;;;;16.50;11.30;;;;;11.50;100127.00;;;;5053168;28;20058;-68
2024/01/31 01:25:17;;;;;;;17.70;11.57;;;;;11.40;100127.00;;;;5051505;28;20059;-70
2024/01/31 01:27:50;;;;;;;17.80;12.07;;;;;11.40;100124.00;;;;5053359;28;20049;-69
2024/01/31 01:30:18;;;;;;;20.57;12.57;;;;;11.30;100126.00;;;;5053379;28;20060;-70
2024/01/31 01:32:45;;;;;;;14.88;10.98;;;;;11.30;100125.00;;;;5053393;28;20410;-70
2024/01/31 01:35:13;;;;;;;16.88;11.55;;;;;11.30;100120.00;;;;5051148;28;20067;-70
2024/01/31 01:37:40;;;;;;;22.48;12.63;;;;;11.30;100125.00;;;;5052840;28;20044;-69
2024/01/31 01:40:08;;;;;;;18.77;11.93;;;;;11.20;100126.00;;;;5053047;28;20045;-71
2024/01/31 01:42:39;;;;;;;18.65;12.32;;;;;11.20;100135.00;;;;5051660;28;20048;-69
2024/01/31 01:45:07;;;;;;;17.23;12.60;;;;;11.20;100130.00;;;;5052352;28;20037;-70
2024/01/31 01:47:35;;;;;;;19.23;12.70;;;;;11.20;100138.00;;;;5051617;28;20204;-70
2024/01/31 01:50:05;;;;;;;17.00;12.07;;;;;11.20;100134.00;;;;5051965;28;20398;-69
2024/01/31 01:52:32;;;;;;;15.30;11.65;;;;;11.20;100144.00;;;;5052951;28;20041;-69
2024/01/31 01:55:03;;;;;;;9.98;7.47;;;;;11.20;100128.00;;;;5052125;28;20048;-69
2024/01/31 01:57:31;;;;;;;11.02;7.22;;;;;11.10;100138.00;;;;5052636;28;20123;-69
2024/01/31 01:59:59;;;;;;;11.10;6.97;;;;;11.00;100128.00;;;;5052547;28;20378;-70
2024/01/31 02:02:27;;;;;;;9.07;7.28;;;;;11.00;100125.00;;;;5052662;28;20049;-68
2024/01/31 02:04:54;;;;;;;11.90;7.40;;;;;11.00;100122.00;;;;5050762;28;20394;-68
2024/01/31 02:07:24;;;;;;;9.05;7.50;;;;;11.00;100118.00;;;;5052463;28;20417;-69
2024/01/31 02:09:54;;;;;;;10.77;7.82;;;;;11.00;100122.00;;;;5052524;28;20041;-68
2024/01/31 02:12:21;;;;;;;11.95;6.63;;;;;11.00;100127.00;;;;5052420;28;20417;-70
2024/01/31 02:14:48;;;;;;;11.35;7.60;;;;;11.00;100117.00;;;;5051912;28;20441;-69
2024/01/31 02:17:14;;;;;;;8.85;6.05;;;;;11.00;100118.00;;;;5051163;28;20045;-68
2024/01/31 02:19:41;;;;;;;10.70;6.50;;;;;11.00;100134.00;;;;5052300;28;20385;-69
2024/01/31 02:22:16;;;;;;;9.73;6.78;;;;;11.00;100122.00;;;;5052357;28;20132;-68
2024/01/31 02:24:43;;;;;;;8.13;6.20;;;;;11.00;100121.00;;;;5051618;28;20045;-68
2024/01/31 02:27:12;;;;;;;11.95;6.72;;;;;11.00;100133.00;;;;5052166;28;20128;-69
2024/01/31 02:29:39;;;;;;;8.77;5.97;;;;;10.90;100132.00;;;;5052071;28;20045;-68
2024/01/31 02:32:06;;;;;;;10.25;5.22;;;;;11.00;100135.00;;;;5052213;28;20119;-69
2024/01/31 02:34:33;;;;;;;8.90;6.15;;;;;10.90;100135.00;;;;5051607;28;20088;-70
2024/01/31 02:37:00;;;;;;;8.27;6.57;;;;;10.90;100135.00;;;;5052131;28;20056;-70
2024/01/31 02:39:27;;;;;;;9.55;6.15;;;;;10.90;100143.00;;;;5051971;28;20098;-69
2024/01/31 02:41:54;;;;;;;9.18;5.85;;;;;10.90;100142.00;;;;5052039;28;20041;-70
2024/01/31 02:44:22;;;;;;;8.95;5.95;;;;;10.90;100148.00;;;;5051404;28;20048;-70
2024/01/31 02:46:49;;;;;;;11.95;5.75;;;;;10.90;100147.00;;;;5051870;28;20124;-69
2024/01/31 02:49:15;;;;;;;8.88;6.00;;;;;11.00;100135.00;;;;5052081;28;20072;-69
2024/01/31 02:51:42;;;;;;;9.73;5.55;;;;;10.90;100134.00;;;;5051975;28;20049;-69
2024/01/31 02:54:09;;;;;;;7.72;5.22;;;;;10.70;100130.00;;;;5051289;28;20375;-69
2024/01/31 02:56:35;;;;;;;8.43;5.95;;;;;10.50;100124.00;;;;5051724;28;20063;-70
2024/01/31 02:59:02;;;;;;;8.85;5.70;;;;;10.50;100133.00;;;;5052004;28;20040;-69
2024/01/31 03:01:28;;;;;;;8.85;5.68;;;;;10.50;100134.00;;;;5054217;28;20050;-69
2024/01/31 03:03:55;;;;;;;9.13;4.90;;;;;10.60;100148.00;;;;5055364;28;20056;-69
2024/01/31 03:06:22;;;;;;;6.47;4.43;;;;;10.50;100148.00;;;;5037878;28;20049;-71
2024/01/31 03:08:48;;;;;;;5.70;3.28;;;;;10.30;100137.00;;;;5055859;28;20045;-69
2024/01/31 03:11:15;;;;;;;4.00;3.40;;;;;10.20;100136.00;;;;5055732;28;20051;-68
2024/01/31 03:13:42;;;;;;;4.75;3.13;;;;;10.20;100135.00;;;;5055187;28;20048;-68
2024/01/31 03:16:08;;;;;;;8.60;3.00;;;;;10.10;100136.00;;;;5055308;28;20482;-67
2024/01/31 03:18:35;;;;;;;5.60;2.58;;;;;10.10;100141.00;;;;5057103;28;20478;-68
2024/01/31 03:21:01;;;;;;;3.42;2.25;;;;;10.10;100138.00;;;;5054769;28;20049;-68
2024/01/31 03:23:28;;;;;;;5.05;2.08;;;;;10.10;100147.00;;;;5055705;28;20075;-69
2024/01/31 03:25:54;;;;;;;2.75;2.00;;;;;10.10;100152.00;;;;5056308;28;20061;-69
2024/01/31 03:28:21;;;;;;;4.15;2.05;;;;;10.20;100154.00;;;;5056180;28;20124;-69
2024/01/31 03:30:47;;;;;;;2.80;1.90;;;;;10.30;100154.00;;;;5056592;28;20490;-68
2024/01/31 03:33:14;;;;;;;6.03;1.90;;;;;10.20;100157.00;;;;5056298;28;20072;-68
2024/01/31 03:35:41;;;;;;;2.53;1.67;;;;;10.20;100154.00;;;;5056400;28;20453;-68
2024/01/31 03:38:08;;;;;;;3.15;1.95;;;;;10.10;100148.00;;;;5055735;28;20499;-68
2024/01/31 03:40:36;;;;;;;2.70;1.60;;;;;10.00;100149.00;;;;5055168;28;20048;-68
2024/01/31 03:43:03;;;;;;;3.22;1.67;;;;;10.10;100153.00;;;;5056032;28;20106;-68
2024/01/31 03:45:30;;;;;;;3.92;2.10;;;;;9.90;100151.00;;;;5055206;28;20506;-69
2024/01/31 03:47:56;;;;;;;5.28;2.33;;;;;9.80;100151.00;;;;5055476;28;20095;-68
2024/01/31 03:50:23;;;;;;;5.45;2.20;;;;;9.80;100148.00;;;;5054985;28;20041;-69
2024/01/31 03:52:49;;;;;;;4.57;1.75;;;;;9.80;100147.00;;;;5054906;28;20124;-68
2024/01/31 03:55:16;;;;;;;3.25;1.70;;;;;9.80;100154.00;;;;5054672;28;20120;-68
2024/01/31 03:57:43;;;;;;;4.57;2.33;;;;;9.90;100163.00;;;;5053715;28;20045;-67
2024/01/31 04:00:10;;;;;;;3.20;1.60;;;;;10.00;100170.00;;;;5053504;28;20087;-69
2024/01/31 04:02:37;;;;;;;3.03;1.35;;;;;10.00;100180.00;;;;5054767;28;20098;-68
2024/01/31 04:05:04;;;;;;;1.75;1.60;;;;;10.00;100184.00;;;;5054194;28;20045;-68
2024/01/31 04:07:31;;;;;;;2.58;1.38;;;;;10.00;100184.00;;;;5053268;28;20075;-68
2024/01/31 04:09:58;;;;;;;2.35;1.50;;;;;10.00;100179.00;;;;5053418;28;20080;-69
2024/01/31 04:12:24;;;;;;;3.63;1.83;;;;;10.00;100190.00;;;;5052449;28;20048;-68
2024/01/31 04:14:51;;;;;;;5.70;1.70;;;;;10.00;100199.00;;;;5054194;28;20120;-69
2024/01/31 04:17:18;;;;;;;5.25;1.75;;;;;10.00;100189.00;;;;5053286;28;20701;-69
2024/01/31 04:19:48;;;;;;;5.85;2.22;;;;;10.00;100188.00;;;;5054572;28;20056;-69
2024/01/31 04:22:18;;;;;;;5.65;2.10;;;;;9.90;100185.00;;;;5053383;28;20053;-69
2024/01/31 04:24:45;;;;;;;3.85;1.98;;;;;9.80;100185.00;;;;5054041;28;20107;-69
2024/01/31 04:27:12;;;;;;;4.78;2.35;;;;;9.60;100177.00;;;;5054264;28;20059;-68
2024/01/31 04:29:39;;;;;;;4.30;1.75;;;;;9.50;100179.00;;;;5053153;28;20574;-68
2024/01/31 04:32:07;;;;;;;3.80;1.70;;;;;9.60;100178.00;;;;5054347;28;20118;-69
2024/01/31 04:34:35;;;;;;;4.40;1.58;;;;;9.80;100173.00;;;;5053423;28;20051;-68
2024/01/31 04:37:01;;;;;;;1.70;1.38;;;;;9.80;100179.00;;;;5036221;28;20134;-69
2024/01/31 04:39:28;;;;;;;2.20;1.45;;;;;9.80;100178.00;;;;5054105;28;20521;-68
2024/01/31 04:41:55;;;;;;;2.85;1.20;;;;;9.90;100185.00;;;;5053917;28;20051;-69
2024/01/31 04:44:21;;;;;;;1.65;1.33;;;;;9.90;100178.00;;;;5053469;28;20127;-69
2024/01/31 04:46:49;;;;;;;2.67;1.40;;;;;9.80;100177.00;;;;5053098;28;20405;-68
2024/01/31 04:49:16;;;;;;;2.85;1.60;;;;;9.80;100193.00;;;;5053823;28;20124;-68
2024/01/31 04:51:43;;;;;;;3.38;1.80;;;;;9.80;100189.00;;;;5053763;28;20045;-69
2024/01/31 04:54:09;;;;;;;5.55;1.52;;;;;9.80;100186.00;;;;5051878;28;20128;-69
2024/01/31 04:56:37;;;;;;;2.55;1.30;;;;;9.90;100190.00;;;;5053566;28;20492;-68
2024/01/31 04:59:04;;;;;;;4.93;1.40;;;;;9.90;100197.00;;;;5052480;28;20041;-69
2024/01/31 05:01:30;;;;;;;3.90;1.23;;;;;9.90;100196.00;;;;5053518;28;20045;-69
2024/01/31 05:03:57;;;;;;;2.85;1.40;;;;;10.00;100185.00;;;;5053108;28;20041;-69
2024/01/31 05:06:24;;;;;;;4.55;1.77;;;;;10.00;100194.00;;;;5053531;28;20401;-68
2024/01/31 05:08:51;;;;;;;2.30;1.40;;;;;10.00;100196.00;;;;5053631;28;20041;-68
2024/01/31 05:11:18;;;;;;;4.47;1.90;;;;;10.00;100188.00;;;;5052158;28;20482;-68
2024/01/31 05:13:44;;;;;;;2.30;1.45;;;;;9.90;100192.00;;;;5051504;28;20438;-70
2024/01/31 05:16:13;;;;;;;4.03;1.38;;;;;9.90;100192.00;;;;5053338;28;20045;-69
2024/01/31 05:18:40;;;;;;;2.50;1.70;;;;;9.90;100193.00;;;;5052178;28;20045;-69
2024/01/31 05:21:10;;;;;;;3.83;1.92;;;;;9.70;100200.00;;;;5053394;28;20439;-69
2024/01/31 05:23:37;;;;;;;4.18;1.67;;;;;9.60;100177.00;;;;5051645;28;20453;-69
2024/01/31 05:26:10;;;;;;;5.97;2.40;;;;;9.60;100187.00;;;;5053260;28;20045;-69
2024/01/31 05:28:37;;;;;;;5.32;2.67;;;;;9.70;100182.00;;;;5053238;28;20041;-70
2024/01/31 05:31:04;;;;;;;3.47;2.17;;;;;9.50;100179.00;;;;5053154;28;20064;-69
2024/01/31 05:33:31;;;;;;;3.22;2.10;;;;;9.30;100184.00;;;;5052734;28;20192;-70
2024/01/31 05:35:59;;;;;;;3.70;1.90;;;;;9.30;100192.00;;;;5053039;28;20047;-68
2024/01/31 05:38:25;;;;;;;3.78;2.28;;;;;9.40;100184.00;;;;5052933;28;20071;-69
2024/01/31 05:40:52;;;;;;;4.30;2.50;;;;;9.40;100188.00;;;;5053094;28;20060;-69
2024/01/31 05:43:19;;;;;;;6.28;2.22;;;;;9.20;100187.00;;;;5051733;28;20418;-69
2024/01/31 05:45:45;;;;;;;5.50;2.00;;;;;9.20;100194.00;;;;5052685;28;20132;-70
2024/01/31 05:48:13;;;;;;;3.65;2.03;;;;;9.30;100205.00;;;;5052044;28;20136;-69
2024/01/31 05:50:40;;;;;;;5.53;2.38;;;;;9.40;100199.00;;;;5052143;28;20053;-68
2024/01/31 05:53:08;;;;;;;3.53;2.33;;;;;9.50;100194.00;;;;5054617;28;20041;-70
2024/01/31 05:55:35;;;;;;;5.43;2.60;;;;;9.50;100189.00;;;;5057181;28;20141;-71
2024/01/31 05:58:02;;;;;;;5.45;3.55;;;;;9.60;100194.00;;;;5052347;28;20045;-69
2024/01/31 06:00:28;;;;;;;9.43;3.70;;;;;9.50;100196.00;;;;5051309;28;20045;-70
2024/01/31 06:02:55;;;;;;;6.70;3.17;;;;;9.50;100187.00;;;;5051284;28;20051;-71
2024/01/31 06:05:26;;;;;;;7.13;3.38;;;;;9.60;100189.00;;;;5051794;28;20554;-70
2024/01/31 06:07:53;;;;;;;7.70;3.67;;;;;9.60;100197.00;;;;5051283;28;20429;-69
2024/01/31 06:10:20;;;;;;;9.30;3.80;;;;;9.60;100201.00;;;;5052470;28;20059;-69
2024/01/31 06:12:47;;;;;;;10.27;4.43;;;;;9.60;100190.00;;;;5051354;28;20053;-69
2024/01/31 06:15:14;;;;;;;9.73;3.50;;;;;9.40;100197.00;;;;5051994;28;20128;-70
2024/01/31 06:17:41;;;;;;;6.50;3.08;;;;;9.40;100204.00;;;;5052865;28;20482;-71
2024/01/31 06:20:09;;;;;;;7.07;2.92;;;;;9.50;100199.00;;;;5051321;28;20084;-69
2024/01/31 06:22:36;;;;;;;7.07;3.00;;;;;9.40;100195.00;;;;5051250;28;20049;-69
2024/01/31 06:25:03;;;;;;;4.07;2.97;;;;;9.30;100190.00;;;;5050834;28;20048;-70
2024/01/31 06:27:30;;;;;;;5.32;3.25;;;;;9.30;100179.00;;;;5052337;28;20041;-68
2024/01/31 06:29:59;;;;;;;5.47;3.50;;;;;9.30;100174.00;;;;5052504;28;20067;-70
2024/01/31 06:32:32;;;;;;;4.72;2.97;;;;;9.30;100174.00;;;;5053122;28;20490;-69
2024/01/31 06:34:59;;;;;;;3.83;2.83;;;;;9.30;100178.00;;;;5050282;28;20437;-70
2024/01/31 06:37:27;;;;;;;3.20;2.20;;;;;9.20;100167.00;;;;5052261;28;20063;-71
2024/01/31 06:39:54;;;;;;;3.90;2.47;;;;;9.00;100170.00;;;;5052388;28;20409;-68
2024/01/31 06:42:21;;;;;;;3.22;2.30;;;;;8.90;100172.00;;;;5051272;28;20128;-69
2024/01/31 06:44:48;;;;;;;3.28;2.67;;;;;8.80;100173.00;;;;5051566;28;20048;-69
2024/01/31 06:47:15;;;;;;;7.30;2.83;;;;;8.80;100173.00;;;;5052142;28;20115;-70
2024/01/31 06:49:41;;;;;;;6.13;3.40;;;;;8.80;100176.00;;;;5052029;28;20049;-70
2024/01/31 06:52:10;;;;;;;6.53;3.50;;;;;8.80;100174.00;;;;5052112;28;20452;-69
2024/01/31 06:54:37;;;;;;;5.50;2.70;;;;;8.60;100172.00;;;;5050256;28;20056;-71
2024/01/31 06:57:03;;;;;;;5.43;2.55;;;;;8.60;100176.00;;;;5051974;28;20482;-70
2024/01/31 06:59:30;;;;;;;4.47;3.08;;;;;8.50;100167.00;;;;5050782;28;20044;-70
2024/01/31 07:01:57;;;;;;;5.90;3.28;;;;;8.40;100175.00;;;;5050794;28;20041;-70
2024/01/31 07:04:23;;;;;;;7.43;4.18;;;;;8.30;100185.00;;;;5051559;28;20045;-69
2024/01/31 07:06:51;;;;;;;7.10;3.38;;;;;8.40;100182.00;;;;5052120;28;20049;-70
2024/01/31 07:09:18;;;;;;;8.85;4.60;;;;;8.40;100181.00;;;;5052236;28;20037;-69
2024/01/31 07:11:45;;;;;;;9.00;3.83;;;;;8.50;100194.00;;;;5051487;28;20106;-68
2024/01/31 07:14:11;;;;;;;9.70;5.38;;;;;8.50;100196.00;;;;5056267;28;20053;-70
2024/01/31 07:16:38;;;;;;;10.23;4.38;;;;;8.40;100198.00;;;;5051913;28;20045;-68
2024/01/31 07:19:04;;;;;;;7.22;4.05;;;;;8.30;100200.00;;;;5050480;28;20045;-69
2024/01/31 07:21:31;;;;;;;10.18;5.88;;;;;8.40;100205.00;;;;5051694;28;20079;-69
2024/01/31 07:23:58;;;;;;;6.97;4.10;;;;;8.30;100202.00;;;;5050009;28;20049;-70
2024/01/31 07:26:36;;;;;;;6.25;3.80;;;;;8.20;100215.00;;;;5051505;28;20394;-70
2024/01/31 07:29:02;;;;;;;6.85;4.72;;;;;8.30;100215.00;;;;5051652;28;20140;-68
2024/01/31 07:31:29;;;;;;;10.20;5.57;;;;;8.40;100217.00;;;;5051668;28;20045;-68
2024/01/31 07:33:56;;;;;;;8.70;4.90;;;;;8.40;100211.00;;;;5051285;28;20045;-69
2024/01/31 07:36:22;;;;;;;7.70;4.05;;;;;8.40;100216.00;;;;5051877;28;20095;-65
2024/01/31 07:38:49;;;;;;;4.32;3.22;;;;;8.40;100207.00;;;;5050239;28;20413;-65
2024/01/31 07:41:15;;;;;;;8.05;3.53;;;;;8.40;100220.00;;;;5051535;28;20533;-66
2024/01/31 07:43:42;;;;;;;10.93;6.80;;;;;8.50;100216.00;;;;5049659;28;20529;-66
2024/01/31 07:46:10;;;;;;;14.40;5.60;;;;;8.60;100212.00;;;;5050177;28;20417;-66
2024/01/31 07:48:37;;;;;;;6.65;3.03;;;;;8.60;100214.00;;;;5056284;28;20040;-66
2024/01/31 07:51:05;;;;;;;4.63;3.45;;;;;8.60;100214.00;;;;5059411;28;20045;-66
2024/01/31 07:53:32;;;;;;;6.97;3.47;;;;;8.70;100217.00;;;;5067569;28;20045;-67
2024/01/31 07:55:58;;;;;;;5.70;3.42;;;;;8.60;100219.00;;;;5059545;28;20056;-66
2024/01/31 07:58:30;;;;;;;6.78;3.33;;;;;8.70;100220.00;;;;5055008;28;20072;-66
2024/01/31 08:00:57;;;;;;;6.00;3.50;;;;;8.70;100222.00;;;;5055765;28;20037;-67
2024/01/31 08:03:24;;;;;;;6.93;4.10;;;;;8.60;100212.00;;;;5055048;28;20080;-67
2024/01/31 08:05:50;;;;;;;4.93;3.13;;;;;8.70;100213.00;;;;5055438;28;20516;-65
2024/01/31 08:08:17;;;;;;;6.28;3.78;;;;;8.70;100219.00;;;;5055249;28;20037;-66
2024/01/31 08:10:43;;;;;;;6.22;3.55;;;;;8.60;100225.00;;;;5053780;28;20059;-66
2024/01/31 08:13:11;;;;;;;4.70;3.22;;;;;8.70;100223.00;;;;5054010;28;20049;-65
2024/01/31 08:15:38;;;;;;;6.35;3.47;;;;;8.80;100221.00;;;;5054184;28;20539;-66
2024/01/31 08:18:05;;;;;;;5.40;3.85;;;;;8.80;100229.00;;;;5054635;28;20450;-67
2024/01/31 08:20:32;;;;;;;5.20;3.45;;;;;8.90;100226.00;;;;5053382;28;20147;-66
2024/01/31 08:22:59;;;;;;;5.95;4.10;;;;;9.00;100227.00;;;;5054787;28;20051;-66
2024/01/31 08:25:26;;;;;;;5.20;3.45;;;;;8.90;100223.00;;;;5052604;28;20132;-67
2024/01/31 08:27:53;;;;;;;7.50;3.75;;;;;8.90;100219.00;;;;5052938;28;20044;-67
2024/01/31 08:30:21;;;;;;;6.05;3.17;;;;;8.90;100222.00;;;;5054335;28;20557;-66
2024/01/31 08:32:48;;;;;;;4.00;2.60;;;;;8.90;100227.00;;;;5054373;28;20709;-67
2024/01/31 08:35:15;;;;;;;4.63;2.55;;;;;8.90;100230.00;;;;5054062;28;20045;-66
2024/01/31 08:37:41;;;;;;;2.70;2.08;;;;;9.00;100218.00;;;;5055029;28;20512;-67
2024/01/31 08:40:10;;;;;;;3.72;2.17;;;;;8.90;100213.00;;;;5055179;28;20052;-67
2024/01/31 08:42:39;;;;;;;4.10;2.20;;;;;8.90;100217.00;;;;5054640;28;20056;-67
2024/01/31 08:45:08;;;;;;;5.22;2.22;;;;;9.00;100216.00;;;;5054107;28;20465;-67
2024/01/31 08:47:35;;;;;;;3.55;2.40;;;;;9.10;100216.00;;;;5053610;28;20052;-68
2024/01/31 08:50:03;;;;;;;4.88;2.85;;;;;9.30;100215.00;;;;5054360;28;20647;-66
2024/01/31 08:52:29;;;;;;;7.72;3.35;;;;;9.30;100219.00;;;;5052902;28;20049;-67
2024/01/31 08:54:56;;;;;;;4.82;2.70;;;;;9.40;100219.00;;;;5054713;28;20127;-66
2024/01/31 08:57:23;;;;;;;4.07;2.85;;;;;9.50;100211.00;;;;5055577;28;20477;-67
2024/01/31 08:59:50;;;;;;;4.72;2.85;;;;;9.60;100220.00;;;;5054068;28;20112;-66
2024/01/31 09:02:17;;;;;;;4.05;3.00;;;;;9.80;100220.00;;;;5054153;28;20053;-66
2024/01/31 09:04:43;;;;;;;5.72;3.72;;;;;10.00;100224.00;;;;5053152;28;20522;-67
2024/01/31 09:07:10;;;;;;;8.68;4.05;;;;;10.20;100225.00;;;;5053731;28;20048;-68
2024/01/31 09:09:38;;;;;;;6.53;4.50;;;;;10.40;100231.00;;;;5053681;28;20041;-67
2024/01/31 09:12:06;;;;;;;7.15;5.13;;;;;10.50;100225.00;;;;5053363;28;20049;-67
2024/01/31 09:14:33;;;;;;;11.27;5.40;;;;;10.50;100223.00;;;;5052989;28;20119;-67
2024/01/31 09:17:00;;;;;;;10.02;5.25;;;;;10.60;100228.00;;;;5053726;28;20049;-67
2024/01/31 09:19:27;;;;;;;8.77;5.55;;;;;10.70;100222.00;;;;5053441;28;20129;-67
2024/01/31 09:21:53;;;;;;;8.13;4.78;;;;;10.70;100220.00;;;;5052226;28;20178;-66
2024/01/31 09:24:20;;;;;;;9.40;5.25;;;;;10.80;100224.00;;;;5051860;28;20136;-68
2024/01/31 09:26:47;;;;;;;10.57;5.97;;;;;10.90;100216.00;;;;5052397;28;20128;-67
2024/01/31 09:29:13;;;;;;;9.45;5.32;;;;;10.90;100213.00;;;;5053238;28;20509;-67
2024/01/31 09:31:40;;;;;;;6.50;5.30;;;;;10.90;100207.00;;;;5053257;28;20498;-66
2024/01/31 09:34:08;;;;;;;9.27;4.93;;;;;10.80;100202.00;;;;5052787;28;20037;-68
2024/01/31 09:36:35;;;;;;;9.73;5.65;;;;;10.80;100203.00;;;;5053610;28;20048;-66
2024/01/31 09:39:03;;;;;;;6.63;3.97;;;;;10.80;100204.00;;;;5052809;28;20509;-66
2024/01/31 09:41:30;;;;;;;5.85;3.90;;;;;10.80;100199.00;;;;5054036;28;20036;-68
2024/01/31 09:43:56;;;;;;;6.65;4.20;;;;;10.80;100191.00;;;;5053013;28;20045;-68
2024/01/31 09:46:24;;;;;;;6.68;3.97;;;;;10.80;100187.00;;;;5053383;28;20119;-67
2024/01/31 09:48:51;;;;;;;6.65;3.70;;;;;10.80;100194.00;;;;5051986;28;20109;-68
2024/01/31 09:51:20;;;;;;;8.02;3.20;;;;;10.80;100188.00;;;;5053265;28;20044;-66
2024/01/31 09:53:51;;;;;;;4.43;3.28;;;;;10.80;100186.00;;;;5052551;28;20099;-68
2024/01/31 09:56:18;;;;;;;5.10;3.10;;;;;11.00;100193.00;;;;5053166;28;20040;-66
2024/01/31 09:58:44;;;;;;;4.70;3.15;;;;;11.30;100186.00;;;;5051732;28;20139;-66
2024/01/31 10:01:13;;;;;;;5.65;3.40;;;;;11.40;100189.00;;;;5053250;28;20049;-68
2024/01/31 10:03:51;;;;;;;7.53;3.90;;;;;11.50;100186.00;;;;5051249;28;20141;-68
2024/01/31 10:06:21;;;;;;;4.53;3.25;;;;;11.70;100194.00;;;;5052884;28;20402;-68
2024/01/31 10:08:48;;;;;;;4.97;3.40;;;;;11.80;100188.00;;;;5052891;28;20498;-68
2024/01/31 10:11:15;;;;;;;6.53;2.53;;;;;11.70;100179.00;;;;5051149;28;20045;-68
2024/01/31 10:13:42;;;;;;;6.55;4.35;;;;;11.80;100174.00;;;;5052153;28;20074;-68
2024/01/31 10:16:13;;;;;;;6.13;2.28;;;;;11.90;100164.00;;;;5051219;28;20053;-68
2024/01/31 10:18:40;;;;;;;4.75;2.30;;;;;12.00;100165.00;;;;5034644;28;20041;-67
2024/01/31 10:21:09;;;;;;;5.18;2.80;;;;;12.00;100165.00;;;;5052308;28;20137;-68
2024/01/31 10:23:35;;;;;;;3.83;2.45;;;;;12.00;100171.00;;;;5051900;28;20045;-68
2024/01/31 10:26:02;;;;;;;6.15;2.30;;;;;12.00;100166.00;;;;5051056;28;20072;-68
2024/01/31 10:28:30;;;;;;;2.55;2.15;;;;;11.90;100147.00;;;;5052470;28;20033;-68
2024/01/31 10:30:58;;;;;;;5.40;2.28;;;;;12.00;100145.00;;;;5051066;28;20473;-68
2024/01/31 10:33:25;;;;;;;4.05;1.52;;;;;12.00;100151.00;;;;5050783;28;20045;-69
2024/01/31 10:35:53;;;;;;;4.15;2.63;;;;;11.90;100152.00;;;;5052506;28;20071;-68
2024/01/31 10:38:23;;;;;;;4.45;1.50;;;;;11.80;100139.00;;;;5051273;28;20053;-67
2024/01/31 10:40:52;;;;;;;3.42;1.75;;;;;11.80;100137.00;;;;5052528;28;20045;-67
2024/01/31 10:43:21;;;;;;;4.68;2.10;;;;;11.90;100138.00;;;;5052206;28;20049;-67
2024/01/31 10:45:48;;;;;;;3.65;1.80;;;;;11.90;100133.00;;;;5034693;28;20494;-67
2024/01/31 10:48:15;;;;;;;3.00;2.28;;;;;11.90;100136.00;;;;5052300;28;20119;-66
2024/01/31 10:50:42;;;;;;;7.13;4.25;;;;;12.00;100132.00;;;;5050764;28;20049;-67
2024/01/31 10:53:10;;;;;;;3.47;3.17;;;;;12.00;100128.00;;;;5052323;28;20045;-66
2024/01/31 10:55:38;;;;;;;3.85;2.25;;;;;12.10;100136.00;;;;5050349;28;20071;-66
2024/01/31 10:58:05;;;;;;;4.90;2.60;;;;;12.10;100133.00;;;;5051973;28;20060;-67
2024/01/31 11:00:32;;;;;;;5.47;2.42;;;;;12.20;100150.00;;;;5050893;28;20108;-67
2024/01/31 11:03:00;;;;;;;4.95;2.67;;;;;12.20;100147.00;;;;5050896;28;20045;-68
2024/01/31 11:05:29;;;;;;;4.32;2.45;;;;;12.30;100156.00;;;;5051143;28;20122;-66
2024/01/31 11:07:56;;;;;;;3.33;1.88;;;;;12.30;100152.00;;;;5050732;28;20080;-66
2024/01/31 11:10:23;;;;;;;2.33;1.65;;;;;12.30;100150.00;;;;5050485;28;20045;-67
2024/01/31 11:12:56;;;;;;;5.50;3.03;;;;;12.30;100141.00;;;;5051581;28;20049;-66
2024/01/31 11:15:34;;;;;;;5.32;2.58;;;;;12.30;100140.00;;;;5051510;28;20113;-65
2024/01/31 11:18:04;;;;;;;5.13;2.85;;;;;12.40;100143.00;;;;5051936;28;20045;-65
2024/01/31 11:20:35;;;;;;;14.75;9.63;;;;;12.50;100151.00;;;;5050736;28;20417;-66
2024/01/31 11:23:03;;;;;;;4.78;2.80;;;;;12.50;100157.00;;;;5055747;28;20048;-66
2024/01/31 11:25:37;;;;;;;12.40;6.95;;;;;12.60;100160.00;;;;5055067;28;20123;-66
2024/01/31 11:28:04;;;;;;;4.88;3.40;;;;;12.50;100156.00;;;;5055691;28;20479;-66
2024/01/31 11:30:32;;;;;;;4.47;2.58;;;;;12.60;100161.00;;;;5055741;28;20037;-67
2024/01/31 11:33:02;;;;;;;1.60;1.33;;;;;12.60;100163.00;;;;5055976;28;20043;-66
2024/01/31 11:35:29;;;;;;;4.20;1.52;;;;;12.60;100151.00;;;;5055136;28;20528;-66
2024/01/31 11:37:57;;;;;;;3.67;1.67;;;;;12.60;100146.00;;;;5055671;28;20116;-66
2024/01/31 11:40:24;;;;;;;4.97;1.40;;;;;12.70;100139.00;;;;5054539;28;20045;-66
2024/01/31 11:42:52;;;;;;;4.43;1.50;;;;;12.60;100138.00;;;;5055693;28;20087;-66
2024/01/31 11:45:18;;;;;;;2.72;1.40;;;;;12.60;100142.00;;;;5053736;28;20049;-67
2024/01/31 11:47:45;;;;;;;3.08;1.60;;;;;12.60;100129.00;;;;5055382;28;20048;-66
2024/01/31 11:50:12;;;;;;;2.50;1.17;;;;;12.60;100122.00;;;;5053743;28;20069;-66
2024/01/31 11:52:39;;;;;;;5.47;2.05;;;;;12.50;100113.00;;;;5053921;28;20044;-66
2024/01/31 11:55:06;;;;;;;2.80;1.60;;;;;12.50;100119.00;;;;5054495;28;20072;-66
2024/01/31 11:57:34;;;;;;;4.47;1.65;;;;;12.60;100112.00;;;;5054017;28;20064;-65
2024/01/31 12:00:04;;;;;;;3.40;1.63;;;;;12.60;100105.00;;;;5055489;28;20120;-66
2024/01/31 12:02:37;;;;;;;4.50;1.90;;;;;12.70;100117.00;;;;5055226;28;20048;-67
2024/01/31 12:05:05;;;;;;;3.28;1.92;;;;;12.70;100113.00;;;;5054229;28;20045;-66
2024/01/31 12:07:33;;;;;;;4.70;2.08;;;;;12.80;100115.00;;;;5055030;28;20518;-67
2024/01/31 12:10:00;;;;;;;5.20;2.15;;;;;12.80;100122.00;;;;5054819;28;20051;-65